Time;durP1;ratioP1;P1;durP2;ratioP2;P2;SDS_P1;SDS_P2;PMS_P1;PMS_P2;Temp;Humidity;BMP_temperature;BMP_pressure;BME280_temperature;BME280_humidity;BME280_pressure;Samples;Min_cycle;Max_cycle;Signal;HPM_P1;HPM_P2
2023/06/01 00:00:16;;;;;;;16.97;7.13;;;11.50;99.90;;;;;;5005534;28;20048;-71
2023/06/01 00:02:42;;;;;;;14.63;6.57;;;11.50;99.90;;;;;;5027139;28;20069;-71
2023/06/01 00:05:07;;;;;;;13.50;7.43;;;11.50;99.90;;;;;;5019908;28;20499;-71
2023/06/01 00:07:34;;;;;;;17.87;6.90;;;11.50;99.90;;;;;;5019771;28;20048;-71
2023/06/01 00:10:00;;;;;;;11.17;6.60;;;11.50;99.90;;;;;;5009080;28;20044;-71
2023/06/01 00:12:26;;;;;;;12.93;6.17;;;11.40;99.90;;;;;;5009708;28;20059;-71
2023/06/01 00:14:52;;;;;;;13.33;7.47;;;11.40;99.90;;;;;;5023407;28;20053;-71
2023/06/01 00:17:19;;;;;;;16.33;7.10;;;11.40;99.90;;;;;;5049757;28;20049;-71
2023/06/01 00:19:47;;;;;;;14.30;7.40;;;11.40;99.90;;;;;;5045189;28;21515;-70
2023/06/01 00:22:13;;;;;;;20.20;7.47;;;11.40;99.90;;;;;;5052920;28;20044;-71
2023/06/01 00:24:39;;;;;;;17.40;7.37;;;11.40;99.90;;;;;;4993408;28;20076;-71
2023/06/01 00:27:05;;;;;;;18.33;7.80;;;11.40;99.90;;;;;;5054094;28;20048;-71
2023/06/01 00:29:30;;;;;;;14.77;8.47;;;11.40;99.90;;;;;;5042859;28;20071;-70
2023/06/01 00:31:56;;;;;;;17.77;7.97;;;11.40;99.90;;;;;;5020005;28;20049;-71
2023/06/01 00:34:22;;;;;;;16.80;7.63;;;11.40;99.90;;;;;;5022386;28;20033;-70
2023/06/01 00:36:48;;;;;;;15.93;6.93;;;11.40;99.90;;;;;;5067241;28;20054;-70
2023/06/01 00:39:13;;;;;;;17.53;7.90;;;11.30;99.90;;;;;;5033631;28;20052;-71
2023/06/01 00:41:39;;;;;;;14.90;7.57;;;11.30;99.90;;;;;;5004734;28;20120;-70
2023/06/01 00:44:05;;;;;;;16.70;7.73;;;11.30;99.90;;;;;;5034685;28;20068;-70
2023/06/01 00:46:31;;;;;;;17.40;7.40;;;11.30;99.90;;;;;;5008004;28;20499;-70
2023/06/01 00:48:58;;;;;;;13.40;6.77;;;11.30;99.90;;;;;;5042796;28;20048;-71
2023/06/01 00:51:24;;;;;;;12.43;7.40;;;11.30;99.90;;;;;;5029319;28;20515;-71
2023/06/01 00:53:50;;;;;;;13.97;8.20;;;11.30;99.90;;;;;;5062211;28;20041;-71
2023/06/01 00:56:17;;;;;;;17.33;8.30;;;11.30;99.90;;;;;;5048204;28;20049;-72
2023/06/01 00:58:43;;;;;;;16.03;7.73;;;11.30;99.90;;;;;;5051115;28;20571;-71
2023/06/01 01:01:18;;;;;;;17.17;8.40;;;11.30;99.90;;;;;;5040781;28;20724;-71
2023/06/01 01:03:49;;;;;;;17.50;7.97;;;11.20;99.90;;;;;;5039636;28;20136;-70
2023/06/01 01:06:39;;;;;;;16.70;7.90;;;11.20;99.90;;;;;;5041289;28;20037;-70
2023/06/01 01:09:18;;;;;;;14.43;7.80;;;11.20;99.90;;;;;;5022896;28;20161;-70
2023/06/01 01:11:51;;;;;;;14.17;7.00;;;11.20;99.90;;;;;;5054490;28;20033;-70
2023/06/01 01:14:29;;;;;;;14.37;8.40;;;11.20;99.90;;;;;;5038873;28;20044;-70
2023/06/01 01:17:10;;;;;;;16.20;7.23;;;11.20;99.90;;;;;;5065415;28;20056;-71
2023/06/01 01:19:53;;;;;;;11.83;7.23;;;11.20;99.90;;;;;;5019783;28;20131;-71
2023/06/01 01:22:38;;;;;;;15.33;7.60;;;11.20;99.90;;;;;;5037480;28;20040;-70
2023/06/01 01:25:31;;;;;;;15.73;7.30;;;11.20;99.90;;;;;;5056836;28;20064;-70
2023/06/01 01:28:21;;;;;;;14.53;7.60;;;11.10;99.90;;;;;;5028384;28;20052;-70
2023/06/01 01:30:50;;;;;;;16.30;6.83;;;11.10;99.90;;;;;;5046315;28;20045;-70
2023/06/01 01:33:18;;;;;;;16.20;6.87;;;11.10;99.90;;;;;;5058775;28;20063;-71
2023/06/01 01:35:44;;;;;;;13.33;7.23;;;11.10;99.90;;;;;;5028801;28;20048;-69
2023/06/01 01:38:10;;;;;;;13.63;6.93;;;11.10;99.90;;;;;;5025037;28;20057;-70
2023/06/01 01:40:35;;;;;;;16.27;8.07;;;11.10;99.90;;;;;;5033974;28;20099;-70
2023/06/01 01:43:02;;;;;;;13.97;7.50;;;11.10;99.90;;;;;;5024921;28;20045;-70
2023/06/01 01:45:28;;;;;;;16.23;7.47;;;11.10;99.90;;;;;;5019458;28;20836;-69
2023/06/01 01:48:05;;;;;;;14.43;6.93;;;11.10;99.90;;;;;;5023495;28;20053;-70
2023/06/01 01:50:38;;;;;;;13.87;6.70;;;11.10;99.90;;;;;;5042976;28;20108;-70
2023/06/01 01:53:06;;;;;;;13.03;6.50;;;11.00;99.90;;;;;;5041701;28;20045;-69
2023/06/01 01:55:34;;;;;;;15.53;7.77;;;11.00;99.90;;;;;;5010999;28;20048;-70
2023/06/01 01:58:01;;;;;;;19.30;8.00;;;11.00;99.90;;;;;;5044293;28;20033;-70
2023/06/01 02:00:28;;;;;;;14.30;7.23;;;11.00;99.90;;;;;;5051284;28;20040;-70
2023/06/01 02:02:53;;;;;;;13.13;7.03;;;11.00;99.90;;;;;;5044319;28;20053;-70
2023/06/01 02:05:19;;;;;;;14.50;7.43;;;11.00;99.90;;;;;;5030299;28;20052;-70
2023/06/01 02:07:45;;;;;;;14.93;7.53;;;11.00;99.90;;;;;;5021975;28;20045;-70
2023/06/01 02:10:11;;;;;;;14.30;7.23;;;11.00;99.90;;;;;;5034778;28;20468;-70
2023/06/01 02:12:37;;;;;;;14.63;7.10;;;11.00;99.90;;;;;;5029768;28;20111;-69
2023/06/01 02:15:03;;;;;;;16.40;7.87;;;11.00;99.90;;;;;;5022515;28;20048;-70
2023/06/01 02:17:29;;;;;;;17.40;7.10;;;11.00;99.90;;;;;;5043922;28;20047;-70
2023/06/01 02:19:55;;;;;;;12.07;7.43;;;11.00;99.90;;;;;;5001993;28;20117;-70
2023/06/01 02:22:21;;;;;;;16.30;7.37;;;11.00;99.90;;;;;;5037675;28;20117;-69
2023/06/01 02:24:47;;;;;;;19.10;7.83;;;11.00;99.90;;;;;;5019310;28;20440;-70
2023/06/01 02:27:13;;;;;;;16.97;7.37;;;11.00;99.90;;;;;;5014715;28;20060;-70
2023/06/01 02:29:38;;;;;;;15.97;7.93;;;11.00;99.90;;;;;;5037151;28;20048;-70
2023/06/01 02:32:04;;;;;;;12.93;6.57;;;11.00;99.90;;;;;;4991513;28;20948;-70
2023/06/01 02:34:31;;;;;;;14.77;6.97;;;11.00;99.90;;;;;;5022209;28;20142;-70
2023/06/01 02:36:56;;;;;;;14.93;6.90;;;11.00;99.90;;;;;;5042422;28;20044;-70
2023/06/01 02:39:23;;;;;;;9.13;6.37;;;10.90;99.90;;;;;;4985167;28;20045;-70
2023/06/01 02:41:49;;;;;;;12.73;6.40;;;10.90;99.90;;;;;;5011067;28;20128;-70
2023/06/01 02:44:15;;;;;;;17.70;7.23;;;10.90;99.90;;;;;;4997387;28;20548;-70
2023/06/01 02:46:41;;;;;;;12.73;6.60;;;10.90;99.90;;;;;;5013625;28;20049;-70
2023/06/01 02:49:06;;;;;;;10.27;6.57;;;10.90;99.90;;;;;;4994874;28;20054;-69
2023/06/01 02:51:32;;;;;;;10.67;6.47;;;10.90;99.90;;;;;;5014748;28;20052;-69
2023/06/01 02:53:59;;;;;;;13.43;6.23;;;10.90;99.90;;;;;;5013403;28;20042;-70
2023/06/01 02:56:26;;;;;;;12.67;6.10;;;10.90;99.90;;;;;;5014109;28;20414;-70
2023/06/01 02:58:52;;;;;;;13.63;6.63;;;10.90;99.90;;;;;;5013318;28;20834;-69
2023/06/01 03:01:19;;;;;;;13.10;7.27;;;10.90;99.90;;;;;;4995967;28;20053;-70
2023/06/01 03:03:46;;;;;;;15.37;6.50;;;10.90;99.90;;;;;;5013950;28;20073;-69
2023/06/01 03:06:13;;;;;;;11.80;6.73;;;10.90;99.90;;;;;;5013080;28;20079;-70
2023/06/01 03:08:39;;;;;;;14.20;6.33;;;10.90;99.90;;;;;;5007131;28;20143;-70
2023/06/01 03:11:05;;;;;;;11.83;6.63;;;10.90;99.90;;;;;;5013824;28;20045;-70
2023/06/01 03:13:31;;;;;;;10.73;6.40;;;10.90;99.90;;;;;;5014823;28;20053;-70
2023/06/01 03:15:57;;;;;;;19.40;6.83;;;10.90;99.90;;;;;;5013003;28;20049;-70
2023/06/01 03:18:22;;;;;;;17.20;7.23;;;10.90;99.90;;;;;;5014679;28;20046;-70
2023/06/01 03:20:48;;;;;;;12.97;7.30;;;10.90;99.90;;;;;;5013677;28;20050;-70
2023/06/01 03:23:15;;;;;;;17.33;7.10;;;10.90;99.90;;;;;;4998710;28;20078;-71
2023/06/01 03:25:41;;;;;;;13.10;6.77;;;10.90;99.90;;;;;;5013133;28;20057;-70
2023/06/01 03:28:07;;;;;;;10.63;6.53;;;10.90;99.90;;;;;;5011806;28;20053;-71
2023/06/01 03:30:33;;;;;;;16.07;8.00;;;10.90;99.90;;;;;;4998447;28;20065;-70
2023/06/01 03:32:58;;;;;;;14.70;7.30;;;10.90;99.90;;;;;;5011547;28;21961;-70
2023/06/01 03:35:24;;;;;;;16.37;8.10;;;10.90;99.90;;;;;;4996573;28;20044;-70
2023/06/01 03:37:50;;;;;;;13.63;5.83;;;10.90;99.90;;;;;;5017594;28;20050;-70
2023/06/01 03:40:16;;;;;;;12.03;6.03;;;10.90;99.90;;;;;;5018814;28;20072;-70
2023/06/01 03:42:43;;;;;;;12.13;5.80;;;10.90;99.90;;;;;;5021686;28;20045;-69
2023/06/01 03:45:10;;;;;;;12.67;6.20;;;10.90;99.90;;;;;;5034977;28;20800;-70
2023/06/01 03:47:36;;;;;;;10.97;5.30;;;10.80;99.90;;;;;;5062914;28;20571;-70
2023/06/01 03:50:06;;;;;;;8.33;5.27;;;10.90;99.90;;;;;;5038164;28;20434;-70
2023/06/01 03:52:32;;;;;;;9.13;5.33;;;10.90;99.90;;;;;;5045953;28;20045;-70
2023/06/01 03:55:00;;;;;;;11.47;5.10;;;10.80;99.90;;;;;;5057508;28;20064;-70
2023/06/01 03:57:27;;;;;;;8.93;5.03;;;10.90;99.90;;;;;;5057519;28;20084;-70
2023/06/01 03:59:52;;;;;;;11.50;5.50;;;10.80;99.90;;;;;;5038221;28;20042;-70
2023/06/01 04:02:18;;;;;;;7.87;4.77;;;10.80;99.90;;;;;;5041109;28;20530;-70
2023/06/01 04:04:45;;;;;;;7.07;4.83;;;10.80;99.90;;;;;;5045546;28;20108;-71
2023/06/01 04:07:14;;;;;;;9.23;4.67;;;10.80;99.90;;;;;;5047430;28;20041;-70
2023/06/01 04:09:43;;;;;;;8.17;4.93;;;10.80;99.90;;;;;;5029499;28;20500;-71
2023/06/01 04:12:10;;;;;;;10.60;5.10;;;10.80;99.90;;;;;;5038339;28;20384;-70
2023/06/01 04:14:36;;;;;;;11.57;5.60;;;10.80;99.90;;;;;;5053589;28;20496;-70
2023/06/01 04:17:02;;;;;;;8.77;4.93;;;10.80;99.90;;;;;;5066368;28;20041;-69
2023/06/01 04:19:28;;;;;;;8.20;4.97;;;10.90;99.90;;;;;;5042635;28;20127;-68
2023/06/01 04:21:54;;;;;;;10.43;4.87;;;10.90;99.90;;;;;;5045124;28;20094;-69
2023/06/01 04:24:20;;;;;;;11.17;5.70;;;10.90;99.90;;;;;;5027547;28;20531;-69
2023/06/01 04:26:45;;;;;;;9.77;5.60;;;10.90;99.90;;;;;;5044691;28;20043;-70
2023/06/01 04:29:11;;;;;;;14.97;5.83;;;10.90;99.90;;;;;;5006171;28;20041;-69
2023/06/01 04:31:39;;;;;;;12.67;6.30;;;10.90;99.90;;;;;;5040052;28;20037;-70
2023/06/01 04:34:05;;;;;;;10.03;6.13;;;10.90;99.90;;;;;;5064286;28;20506;-70
2023/06/01 04:36:37;;;;;;;10.33;5.83;;;10.90;99.90;;;;;;5037274;28;20124;-70
2023/06/01 04:39:03;;;;;;;13.75;5.90;;;10.90;99.90;;;;;;5043383;28;20064;-70
2023/06/01 04:41:30;;;;;;;11.53;5.97;;;11.00;99.90;;;;;;5059155;28;20045;-70
2023/06/01 04:43:58;;;;;;;11.90;6.17;;;10.90;99.90;;;;;;5038194;28;20048;-70
2023/06/01 04:46:26;;;;;;;17.60;7.10;;;11.00;99.90;;;;;;5056185;28;20373;-69
2023/06/01 04:48:53;;;;;;;14.20;6.60;;;10.90;99.90;;;;;;5036964;28;20049;-69
2023/06/01 04:51:19;;;;;;;14.77;6.77;;;11.00;99.90;;;;;;5031152;28;21086;-70
2023/06/01 04:53:49;;;;;;;19.80;8.20;;;11.00;99.90;;;;;;5043774;28;20045;-69
2023/06/01 04:56:17;;;;;;;15.73;6.87;;;11.00;99.90;;;;;;5043431;28;20037;-69
2023/06/01 04:58:44;;;;;;;15.97;7.27;;;10.90;99.90;;;;;;5061970;28;20504;-69
2023/06/01 05:01:13;;;;;;;10.10;6.23;;;11.00;99.90;;;;;;5021619;28;20041;-72
2023/06/01 05:03:39;;;;;;;12.37;6.50;;;11.00;99.90;;;;;;5009609;28;20032;-71
2023/06/01 05:06:05;;;;;;;12.90;6.53;;;11.00;99.90;;;;;;5057422;28;20043;-70
2023/06/01 05:08:31;;;;;;;12.53;6.53;;;11.00;99.90;;;;;;5062432;28;20114;-70
2023/06/01 05:10:57;;;;;;;12.37;6.20;;;10.90;99.90;;;;;;5058583;28;20124;-71
2023/06/01 05:13:22;;;;;;;12.13;6.73;;;10.90;99.90;;;;;;5036769;28;20076;-72
2023/06/01 05:15:48;;;;;;;13.53;6.57;;;10.90;99.90;;;;;;5029233;28;20050;-71
2023/06/01 05:18:14;;;;;;;10.43;5.60;;;10.90;99.90;;;;;;5037010;28;20088;-70
2023/06/01 05:20:40;;;;;;;11.50;5.03;;;10.90;99.90;;;;;;5016098;28;20452;-71
2023/06/01 05:23:05;;;;;;;15.67;6.37;;;10.90;99.90;;;;;;5019482;28;20079;-70
2023/06/01 05:25:31;;;;;;;10.97;5.70;;;10.90;99.90;;;;;;5054909;28;20040;-72
2023/06/01 05:27:57;;;;;;;11.53;5.70;;;10.90;99.90;;;;;;5016429;28;20150;-73
2023/06/01 05:30:23;;;;;;;9.03;5.50;;;10.90;99.90;;;;;;5023666;28;20055;-73
2023/06/01 05:32:48;;;;;;;12.53;5.27;;;10.90;99.90;;;;;;5025472;28;20049;-71
2023/06/01 05:35:14;;;;;;;8.77;5.37;;;10.90;99.90;;;;;;5017697;28;20041;-70
2023/06/01 05:37:40;;;;;;;12.07;5.67;;;10.90;99.90;;;;;;5033277;28;20128;-69
2023/06/01 05:40:08;;;;;;;9.30;5.23;;;11.00;99.90;;;;;;5035200;28;20052;-69
2023/06/01 05:42:34;;;;;;;13.40;6.50;;;11.00;99.90;;;;;;5033569;28;20076;-70
2023/06/01 05:45:00;;;;;;;13.20;5.27;;;11.00;99.90;;;;;;5035128;28;20049;-69
2023/06/01 05:47:25;;;;;;;11.50;5.97;;;11.00;99.90;;;;;;5057486;28;20810;-69
2023/06/01 05:49:51;;;;;;;12.17;6.17;;;11.00;99.90;;;;;;5022729;28;20135;-70
2023/06/01 05:52:17;;;;;;;15.93;6.23;;;11.00;99.90;;;;;;5060060;28;20135;-69
2023/06/01 05:54:42;;;;;;;11.30;6.37;;;11.00;99.90;;;;;;5042772;28;20059;-69
2023/06/01 05:57:08;;;;;;;10.50;5.93;;;11.10;99.90;;;;;;5042290;28;20087;-69
2023/06/01 05:59:34;;;;;;;13.43;5.90;;;11.00;99.90;;;;;;5043733;28;20072;-69
2023/06/01 06:01:59;;;;;;;14.97;6.60;;;11.10;99.90;;;;;;5043420;28;20043;-69
2023/06/01 06:04:25;;;;;;;13.93;6.27;;;11.10;99.90;;;;;;5044377;28;20040;-69
2023/06/01 06:06:51;;;;;;;14.13;6.30;;;11.20;99.90;;;;;;5057901;28;20059;-70
2023/06/01 06:09:17;;;;;;;15.53;6.30;;;11.20;99.90;;;;;;5058560;28;20060;-70
2023/06/01 06:11:43;;;;;;;10.40;5.57;;;11.20;99.90;;;;;;5029331;28;20053;-69
2023/06/01 06:14:11;;;;;;;12.17;5.90;;;11.20;99.90;;;;;;5037446;28;20037;-70
2023/06/01 06:16:37;;;;;;;12.93;6.30;;;11.20;99.90;;;;;;5056922;28;20087;-75
2023/06/01 06:19:02;;;;;;;11.63;4.87;;;11.20;99.90;;;;;;5049930;28;20040;-69
2023/06/01 06:21:28;;;;;;;12.50;5.30;;;11.20;99.90;;;;;;5019234;28;20192;-69
2023/06/01 06:23:58;;;;;;;11.50;5.90;;;11.20;99.90;;;;;;5054653;28;20045;-69
2023/06/01 06:26:27;;;;;;;10.53;4.90;;;11.30;99.90;;;;;;5037193;28;21520;-69
2023/06/01 06:28:53;;;;;;;10.27;4.47;;;11.30;99.90;;;;;;5019600;28;20056;-69
2023/06/01 06:31:19;;;;;;;9.47;4.97;;;11.30;99.90;;;;;;5036205;28;20090;-70
2023/06/01 06:33:44;;;;;;;10.13;4.20;;;11.30;99.90;;;;;;5021732;28;20124;-69
2023/06/01 06:36:10;;;;;;;7.03;4.43;;;11.30;99.90;;;;;;5034829;28;21206;-70
2023/06/01 06:38:36;;;;;;;6.37;3.67;;;11.40;99.90;;;;;;5039984;28;20071;-69
2023/06/01 06:41:02;;;;;;;9.97;3.90;;;11.40;99.90;;;;;;5017989;28;20507;-69
2023/06/01 06:43:27;;;;;;;6.97;3.87;;;11.40;99.90;;;;;;5042377;28;20048;-69
2023/06/01 06:45:53;;;;;;;6.87;3.20;;;11.40;99.90;;;;;;5038996;28;20151;-69
2023/06/01 06:48:19;;;;;;;9.57;4.10;;;11.40;99.90;;;;;;5018088;28;20485;-69
2023/06/01 06:50:45;;;;;;;8.50;3.70;;;11.40;99.90;;;;;;5040215;28;20029;-69
2023/06/01 06:53:11;;;;;;;6.07;3.30;;;11.50;99.90;;;;;;5024258;28;20068;-70
2023/06/01 06:55:37;;;;;;;5.60;3.53;;;11.50;99.90;;;;;;5041310;28;20053;-69
2023/06/01 06:58:03;;;;;;;5.03;3.30;;;11.50;99.90;;;;;;5004151;28;20056;-69
2023/06/01 07:00:28;;;;;;;4.57;3.23;;;11.50;99.90;;;;;;5039418;28;20216;-69
2023/06/01 07:02:55;;;;;;;6.07;3.23;;;11.50;99.90;;;;;;5017965;28;20064;-69
2023/06/01 07:05:20;;;;;;;10.35;3.65;;;11.50;99.90;;;;;;5041471;28;20686;-69
2023/06/01 07:07:46;;;;;;;4.33;2.90;;;11.70;99.90;;;;;;5023582;28;20104;-69
2023/06/01 07:10:12;;;;;;;7.90;3.03;;;11.70;99.90;;;;;;5040044;28;20502;-69
2023/06/01 07:12:39;;;;;;;5.27;3.13;;;11.80;99.90;;;;;;5035851;28;20851;-69
2023/06/01 07:15:06;;;;;;;5.83;2.90;;;11.80;99.90;;;;;;5016411;28;20045;-70
2023/06/01 07:17:31;;;;;;;6.00;3.33;;;11.70;99.90;;;;;;5016693;28;20076;-69
2023/06/01 07:19:59;;;;;;;5.85;3.22;;;11.80;99.90;;;;;;5020180;28;20044;-69
2023/06/01 07:22:25;;;;;;;3.73;2.83;;;11.90;99.90;;;;;;5020672;28;21094;-69
2023/06/01 07:24:50;;;;;;;5.17;3.33;;;11.90;99.90;;;;;;5037833;28;20043;-69
2023/06/01 07:27:17;;;;;;;23.67;4.80;;;11.90;99.90;;;;;;5037678;28;20050;-69
2023/06/01 07:29:44;;;;;;;5.43;3.13;;;11.90;99.90;;;;;;5020627;28;20052;-69
2023/06/01 07:32:10;;;;;;;8.20;3.10;;;12.00;99.90;;;;;;5015259;28;20037;-69
2023/06/01 07:34:36;;;;;;;4.68;2.85;;;12.00;99.90;;;;;;5003081;28;20065;-69
2023/06/01 07:37:03;;;;;;;5.30;2.60;;;12.00;99.90;;;;;;5003135;28;20048;-69
2023/06/01 07:39:29;;;;;;;3.55;2.35;;;12.00;99.90;;;;;;4999710;28;20077;-70
2023/06/01 07:41:56;;;;;;;4.22;2.10;;;12.00;99.90;;;;;;5016664;28;20065;-69
2023/06/01 07:44:22;;;;;;;4.32;2.60;;;12.00;99.90;;;;;;5014252;28;20117;-70
2023/06/01 07:46:48;;;;;;;7.13;3.75;;;12.00;99.90;;;;;;5003061;28;20033;-70
2023/06/01 07:49:15;;;;;;;5.10;3.60;;;12.00;99.90;;;;;;5036369;28;20106;-69
2023/06/01 07:51:42;;;;;;;9.77;3.97;;;12.00;99.90;;;;;;5035837;28;20049;-69
2023/06/01 07:54:08;;;;;;;4.97;3.65;;;12.00;99.90;;;;;;5034576;28;20240;-69
2023/06/01 07:56:34;;;;;;;6.75;3.80;;;12.10;99.90;;;;;;5038314;28;20055;-70
2023/06/01 07:59:00;;;;;;;5.15;3.00;;;12.10;99.90;;;;;;5018807;28;20045;-70
2023/06/01 08:01:26;;;;;;;3.53;2.72;;;12.20;99.90;;;;;;5020913;28;21276;-70
2023/06/01 08:03:52;;;;;;;4.65;2.33;;;12.20;99.90;;;;;;5022579;28;20067;-69
2023/06/01 08:06:18;;;;;;;4.10;2.70;;;12.30;99.90;;;;;;5003396;28;20061;-70
2023/06/01 08:08:45;;;;;;;5.68;2.53;;;12.30;99.90;;;;;;5040269;28;20577;-69
2023/06/01 08:11:12;;;;;;;6.25;2.30;;;12.30;99.90;;;;;;5036990;28;20961;-69
2023/06/01 08:13:38;;;;;;;2.25;1.60;;;12.30;99.90;;;;;;5039947;28;20078;-70
2023/06/01 08:16:04;;;;;;;3.10;1.63;;;12.30;99.90;;;;;;5039111;28;20166;-69
2023/06/01 08:18:30;;;;;;;2.88;1.90;;;12.20;99.90;;;;;;5039643;28;20049;-69
2023/06/01 08:20:56;;;;;;;3.75;2.10;;;12.30;99.90;;;;;;5022386;28;20033;-69
2023/06/01 08:23:24;;;;;;;3.22;2.30;;;12.20;99.90;;;;;;5003012;28;20500;-69
2023/06/01 08:25:50;;;;;;;4.05;2.00;;;12.20;99.90;;;;;;5003570;28;20538;-69
2023/06/01 08:28:16;;;;;;;3.85;2.17;;;12.20;99.90;;;;;;5003172;28;20041;-70
2023/06/01 08:30:42;;;;;;;6.30;2.58;;;12.20;99.90;;;;;;5021845;28;20071;-69
2023/06/01 08:33:07;;;;;;;4.78;2.78;;;12.10;99.90;;;;;;5020944;28;20047;-69
2023/06/01 08:35:34;;;;;;;5.43;2.80;;;12.10;99.90;;;;;;5020314;28;20040;-70
2023/06/01 08:38:01;;;;;;;5.25;3.03;;;12.10;99.90;;;;;;5023800;28;20041;-69
2023/06/01 08:40:27;;;;;;;3.35;2.53;;;12.10;99.90;;;;;;5023881;28;20056;-69
2023/06/01 08:43:21;;;;;;;5.05;2.80;;;12.10;99.90;;;;;;5041866;28;20385;-69
2023/06/01 08:45:48;;;;;;;7.28;2.83;;;12.00;99.90;;;;;;5022910;28;20091;-70
2023/06/01 08:48:18;;;;;;;3.90;2.58;;;12.00;99.90;;;;;;4992842;28;20392;-69
2023/06/01 08:50:52;;;;;;;4.55;2.88;;;12.00;99.90;;;;;;5041923;28;20087;-69
2023/06/01 08:53:21;;;;;;;5.55;2.95;;;12.00;99.90;;;;;;5006021;28;20083;-69
2023/06/01 08:55:53;;;;;;;5.38;2.95;;;12.10;99.90;;;;;;5042595;28;20120;-69
2023/06/01 08:58:19;;;;;;;6.22;2.67;;;12.20;99.90;;;;;;5019408;28;20114;-69
2023/06/01 09:00:49;;;;;;;4.95;2.33;;;12.20;99.90;;;;;;5009218;28;20048;-69
2023/06/01 09:03:15;;;;;;;4.60;2.90;;;12.30;99.90;;;;;;5022992;28;20029;-69
2023/06/01 09:05:41;;;;;;;5.45;2.88;;;12.30;99.90;;;;;;5024038;28;20133;-69
2023/06/01 09:08:08;;;;;;;4.45;2.72;;;12.40;99.90;;;;;;5043133;28;20458;-68
2023/06/01 09:10:33;;;;;;;3.60;2.60;;;12.40;99.90;;;;;;5038709;28;20049;-70
2023/06/01 09:13:00;;;;;;;4.05;2.70;;;12.40;99.90;;;;;;5042585;28;20048;-70
2023/06/01 09:15:26;;;;;;;3.92;2.60;;;12.40;99.90;;;;;;5020606;28;20061;-70
2023/06/01 09:18:07;;;;;;;5.85;3.38;;;12.40;99.90;;;;;;5021706;28;20052;-70
2023/06/01 09:20:33;;;;;;;5.45;2.70;;;12.40;99.90;;;;;;5041703;28;20068;-70
2023/06/01 09:23:00;;;;;;;3.92;2.92;;;12.40;99.90;;;;;;4994892;28;20563;-69
2023/06/01 09:25:31;;;;;;;5.75;1.92;;;12.50;99.90;;;;;;5019188;28;20432;-69
2023/06/01 09:27:59;;;;;;;3.17;2.00;;;12.50;99.90;;;;;;5019636;28;20056;-69
2023/06/01 09:30:36;;;;;;;3.85;2.08;;;12.60;99.90;;;;;;5042546;28;20099;-69
2023/06/01 09:33:16;;;;;;;2.80;2.10;;;12.60;99.90;;;;;;5039831;28;20049;-70
2023/06/01 09:35:50;;;;;;;4.20;2.05;;;12.70;99.90;;;;;;5039730;28;20060;-69
2023/06/01 09:38:32;;;;;;;5.13;2.58;;;12.70;99.90;;;;;;5042227;28;20048;-68
2023/06/01 09:41:02;;;;;;;4.47;2.63;;;12.80;99.90;;;;;;4997803;28;20068;-69
2023/06/01 09:43:29;;;;;;;4.10;2.65;;;12.80;99.90;;;;;;4971488;28;20050;-69
2023/06/01 09:46:14;;;;;;;6.90;2.80;;;12.80;99.90;;;;;;4994435;28;20065;-70
2023/06/01 09:48:42;;;;;;;5.50;3.38;;;12.70;99.90;;;;;;4999122;28;20133;-69
2023/06/01 09:51:22;;;;;;;8.27;3.55;;;12.60;99.90;;;;;;4992883;28;20068;-70
2023/06/01 09:53:48;;;;;;;6.00;3.15;;;12.60;99.90;;;;;;5001357;28;20050;-69
2023/06/01 09:56:15;;;;;;;7.63;3.35;;;12.50;99.90;;;;;;4984755;28;20650;-69
2023/06/01 09:58:40;;;;;;;8.48;4.18;;;12.50;99.90;;;;;;4996806;28;20056;-70
2023/06/01 10:01:08;;;;;;;7.68;4.30;;;12.50;99.90;;;;;;4997675;28;20050;-69
2023/06/01 10:03:36;;;;;;;9.15;4.63;;;12.50;99.90;;;;;;4990181;28;20050;-69
2023/06/01 10:06:03;;;;;;;14.95;4.72;;;12.40;99.90;;;;;;4996345;28;20909;-69
2023/06/01 10:08:30;;;;;;;10.15;5.22;;;12.50;99.90;;;;;;4976361;28;20100;-69
2023/06/01 10:10:56;;;;;;;10.05;5.07;;;12.30;99.90;;;;;;4990394;28;20054;-69
2023/06/01 10:13:24;;;;;;;12.50;5.15;;;12.20;99.90;;;;;;4999505;28;20068;-70
2023/06/01 10:15:54;;;;;;;12.27;5.43;;;12.20;99.90;;;;;;4992993;28;20140;-69
2023/06/01 10:18:21;;;;;;;12.18;5.22;;;12.10;99.90;;;;;;4994390;28;20386;-70
2023/06/01 10:20:47;;;;;;;10.13;5.55;;;12.10;99.90;;;;;;4980047;28;20042;-69
2023/06/01 10:23:13;;;;;;;11.02;5.43;;;12.20;99.90;;;;;;5001594;28;20124;-69
2023/06/01 10:25:43;;;;;;;10.10;5.05;;;12.20;99.90;;;;;;5001884;28;20119;-69
2023/06/01 10:28:11;;;;;;;11.73;5.22;;;12.30;99.90;;;;;;5010928;28;20057;-69
2023/06/01 10:30:38;;;;;;;13.13;5.03;;;12.40;99.90;;;;;;4988448;28;20066;-70
2023/06/01 10:33:04;;;;;;;10.63;4.75;;;12.40;99.90;;;;;;5002752;28;20106;-69
2023/06/01 10:35:30;;;;;;;12.80;4.95;;;12.50;99.90;;;;;;4999843;28;20387;-69
2023/06/01 10:38:14;;;;;;;9.10;4.15;;;12.60;99.90;;;;;;5006026;28;20409;-69
2023/06/01 10:40:44;;;;;;;8.43;4.38;;;12.70;99.90;;;;;;5029497;28;20060;-69
2023/06/01 10:43:35;;;;;;;8.55;3.75;;;12.80;99.90;;;;;;5035290;28;20041;-69
2023/06/01 10:46:01;;;;;;;10.07;4.03;;;13.00;99.90;;;;;;5030152;28;20092;-69
2023/06/01 10:48:53;;;;;;;9.00;3.63;;;13.00;99.90;;;;;;5031676;28;20394;-69
2023/06/01 10:51:20;;;;;;;9.88;3.53;;;13.00;99.90;;;;;;5037737;28;20045;-69
2023/06/01 10:53:46;;;;;;;10.07;3.90;;;13.10;99.90;;;;;;5033402;28;20075;-69
2023/06/01 10:56:26;;;;;;;10.20;4.40;;;13.10;99.90;;;;;;5034018;28;20097;-69
2023/06/01 10:59:09;;;;;;;6.47;3.92;;;13.10;99.90;;;;;;5033012;28;20124;-69
2023/06/01 11:01:43;;;;;;;11.80;4.00;;;13.20;99.90;;;;;;5042006;28;20639;-70
2023/06/01 11:04:09;;;;;;;9.45;4.18;;;13.20;99.90;;;;;;5038504;28;20637;-69
2023/06/01 11:06:38;;;;;;;8.85;4.45;;;13.10;99.90;;;;;;5011023;28;20053;-69
2023/06/01 11:09:10;;;;;;;9.18;4.32;;;13.00;99.90;;;;;;5033144;28;20132;-70
2023/06/01 11:11:50;;;;;;;11.40;5.05;;;13.00;99.90;;;;;;5033027;28;20041;-70
2023/06/01 11:14:18;;;;;;;8.63;4.43;;;13.10;99.90;;;;;;5029511;28;21002;-70
2023/06/01 11:16:45;;;;;;;8.20;4.35;;;13.10;99.90;;;;;;5032733;28;20060;-70
2023/06/01 11:19:18;;;;;;;9.60;4.00;;;13.10;99.90;;;;;;5029002;28;20103;-70
2023/06/01 11:21:44;;;;;;;9.38;3.90;;;13.20;99.90;;;;;;5031529;28;20084;-70
2023/06/01 11:24:14;;;;;;;11.95;4.70;;;13.30;99.90;;;;;;5033332;28;20049;-70
2023/06/01 11:26:45;;;;;;;10.52;4.90;;;13.30;99.90;;;;;;5013273;28;20045;-69
2023/06/01 11:29:24;;;;;;;6.43;4.07;;;13.30;99.90;;;;;;5011573;28;20049;-69
2023/06/01 11:31:57;;;;;;;8.55;4.18;;;13.30;99.90;;;;;;5035344;28;20111;-69
2023/06/01 11:34:41;;;;;;;10.23;4.45;;;13.40;99.90;;;;;;5032987;28;20049;-69
2023/06/01 11:37:14;;;;;;;10.60;4.15;;;13.50;99.90;;;;;;5027353;28;20044;-70
2023/06/01 11:39:41;;;;;;;7.30;3.85;;;13.60;99.90;;;;;;5018191;28;20065;-70
2023/06/01 11:42:13;;;;;;;11.27;4.18;;;13.70;99.90;;;;;;5021710;28;20058;-70
2023/06/01 11:44:45;;;;;;;7.90;3.92;;;13.70;99.90;;;;;;5022146;28;20041;-70
2023/06/01 11:47:11;;;;;;;10.65;4.30;;;13.80;99.90;;;;;;5001695;28;20053;-71
2023/06/01 11:49:47;;;;;;;9.18;4.32;;;13.80;99.90;;;;;;5014067;28;20279;-71
2023/06/01 11:52:14;;;;;;;11.23;5.00;;;13.90;99.90;;;;;;5003560;28;20070;-71
2023/06/01 11:54:40;;;;;;;10.80;4.75;;;13.90;99.90;;;;;;5014051;28;20157;-71
2023/06/01 11:57:07;;;;;;;6.43;3.95;;;13.90;99.90;;;;;;4988889;28;20057;-70
2023/06/01 11:59:38;;;;;;;9.68;4.40;;;13.90;99.90;;;;;;5012230;28;20480;-70
2023/06/01 12:02:15;;;;;;;8.02;4.10;;;13.90;99.90;;;;;;5008855;28;20050;-70
2023/06/01 12:04:41;;;;;;;7.85;4.05;;;14.00;99.90;;;;;;5022426;28;20053;-70
2023/06/01 12:07:07;;;;;;;8.98;4.40;;;14.00;99.90;;;;;;5019722;28;20045;-71
2023/06/01 12:09:34;;;;;;;9.40;3.92;;;14.00;99.90;;;;;;5013846;28;20057;-70
2023/06/01 12:12:00;;;;;;;8.45;3.70;;;14.00;99.90;;;;;;5006364;28;20049;-70
2023/06/01 12:14:27;;;;;;;8.52;3.90;;;14.00;99.90;;;;;;5019015;28;20054;-70
2023/06/01 12:17:02;;;;;;;11.80;4.13;;;14.00;99.90;;;;;;5017754;28;20045;-70
2023/06/01 12:19:28;;;;;;;10.43;4.85;;;13.90;99.90;;;;;;5016995;28;21639;-69
2023/06/01 12:21:56;;;;;;;9.93;4.20;;;13.80;99.90;;;;;;5016785;28;20077;-70
2023/06/01 12:24:29;;;;;;;5.65;3.53;;;13.80;99.90;;;;;;5019713;28;20103;-70
2023/06/01 12:26:57;;;;;;;7.60;4.10;;;13.80;99.90;;;;;;5014352;28;20076;-69
2023/06/01 12:29:46;;;;;;;7.25;4.00;;;13.80;99.90;;;;;;5020823;28;20149;-69
2023/06/01 12:32:15;;;;;;;6.68;3.90;;;13.80;99.90;;;;;;5019767;28;20160;-69
2023/06/01 12:34:48;;;;;;;7.43;3.70;;;13.90;99.90;;;;;;5014544;28;20049;-69
2023/06/01 12:37:20;;;;;;;6.43;3.42;;;13.90;99.90;;;;;;5013484;28;20076;-69
2023/06/01 12:39:53;;;;;;;10.27;3.97;;;13.90;99.90;;;;;;5017614;28;20088;-69
2023/06/01 12:42:33;;;;;;;8.23;3.75;;;14.00;99.90;;;;;;5021689;28;20092;-70
2023/06/01 12:44:58;;;;;;;6.78;3.90;;;14.10;99.90;;;;;;5015037;28;21211;-70